sensor_id;sensor_type;location;lat;lon;timestamp;temperature;humidity
4813;DHT22;2420;51.202;8.698;2022-11-20T00:01:20;-5.90;1.00
4813;DHT22;2420;51.202;8.698;2022-11-20T00:03:46;-5.70;1.00
4813;DHT22;2420;51.202;8.698;2022-11-20T00:06:14;-5.90;1.00
4813;DHT22;2420;51.202;8.698;2022-11-20T00:08:41;-5.70;1.00
4813;DHT22;2420;51.202;8.698;2022-11-20T00:11:12;-5.90;1.00
4813;DHT22;2420;51.202;8.698;2022-11-20T00:13:38;-5.70;1.00
4813;DHT22;2420;51.202;8.698;2022-11-20T00:16:06;-5.80;1.00
4813;DHT22;2420;51.202;8.698;2022-11-20T00:18:33;-5.80;1.00
4813;DHT22;2420;51.202;8.698;2022-11-20T00:21:07;-5.90;1.00
4813;DHT22;2420;51.202;8.698;2022-11-20T00:23:33;-5.90;1.00
4813;DHT22;2420;51.202;8.698;2022-11-20T00:26:07;-6.20;1.00
4813;DHT22;2420;51.202;8.698;2022-11-20T00:28:34;-6.00;1.00
4813;DHT22;2420;51.202;8.698;2022-11-20T00:31:03;-5.80;1.00
4813;DHT22;2420;51.202;8.698;2022-11-20T00:33:29;-6.10;1.00
4813;DHT22;2420;51.202;8.698;2022-11-20T00:35:59;-6.00;1.00
4813;DHT22;2420;51.202;8.698;2022-11-20T00:38:25;-6.00;1.00
4813;DHT22;2420;51.202;8.698;2022-11-20T00:40:58;-6.10;1.00
4813;DHT22;2420;51.202;8.698;2022-11-20T00:43:24;-6.00;1.00
4813;DHT22;2420;51.202;8.698;2022-11-20T00:45:50;-6.10;1.00
4813;DHT22;2420;51.202;8.698;2022-11-20T00:48:16;-5.90;1.00
4813;DHT22;2420;51.202;8.698;2022-11-20T00:50:42;-5.90;1.00
4813;DHT22;2420;51.202;8.698;2022-11-20T00:53:07;-6.10;1.00
4813;DHT22;2420;51.202;8.698;2022-11-20T00:55:33;-6.20;1.00
4813;DHT22;2420;51.202;8.698;2022-11-20T00:57:58;-6.00;1.00
4813;DHT22;2420;51.202;8.698;2022-11-20T01:00:24;-6.00;1.00
4813;DHT22;2420;51.202;8.698;2022-11-20T01:02:49;-6.00;1.00
4813;DHT22;2420;51.202;8.698;2022-11-20T01:05:15;-6.20;1.00
4813;DHT22;2420;51.202;8.698;2022-11-20T01:07:40;-5.90;1.00
4813;DHT22;2420;51.202;8.698;2022-11-20T01:10:06;-6.20;1.00
4813;DHT22;2420;51.202;8.698;2022-11-20T01:12:32;-6.20;1.00
4813;DHT22;2420;51.202;8.698;2022-11-20T01:14:57;-6.00;1.00
4813;DHT22;2420;51.202;8.698;2022-11-20T01:17:23;-6.20;1.00
4813;DHT22;2420;51.202;8.698;2022-11-20T01:19:49;-6.10;1.00
4813;DHT22;2420;51.202;8.698;2022-11-20T01:22:15;-6.40;1.00
4813;DHT22;2420;51.202;8.698;2022-11-20T01:24:41;-6.40;1.00
4813;DHT22;2420;51.202;8.698;2022-11-20T01:27:06;-6.50;1.00
4813;DHT22;2420;51.202;8.698;2022-11-20T01:29:32;-6.30;1.00
4813;DHT22;2420;51.202;8.698;2022-11-20T01:31:57;-6.30;1.00
4813;DHT22;2420;51.202;8.698;2022-11-20T01:34:23;-6.30;1.00
4813;DHT22;2420;51.202;8.698;2022-11-20T01:36:49;-6.10;1.00
4813;DHT22;2420;51.202;8.698;2022-11-20T01:39:20;-6.10;1.00
4813;DHT22;2420;51.202;8.698;2022-11-20T01:41:48;-6.30;1.00
4813;DHT22;2420;51.202;8.698;2022-11-20T01:44:52;-6.00;1.00
4813;DHT22;2420;51.202;8.698;2022-11-20T01:47:43;-6.30;1.00
4813;DHT22;2420;51.202;8.698;2022-11-20T01:52:42;-6.20;1.00
4813;DHT22;2420;51.202;8.698;2022-11-20T01:55:19;-6.30;1.00
4813;DHT22;2420;51.202;8.698;2022-11-20T01:57:45;-6.30;1.00
4813;DHT22;2420;51.202;8.698;2022-11-20T02:00:15;-6.20;1.00
4813;DHT22;2420;51.202;8.698;2022-11-20T02:02:45;-6.50;1.00
4813;DHT22;2420;51.202;8.698;2022-11-20T02:07:48;-6.30;1.00
4813;DHT22;2420;51.202;8.698;2022-11-20T02:10:14;-6.30;1.00
4813;DHT22;2420;51.202;8.698;2022-11-20T02:12:40;-6.30;1.00
4813;DHT22;2420;51.202;8.698;2022-11-20T02:15:24;-6.30;1.00
4813;DHT22;2420;51.202;8.698;2022-11-20T02:17:50;-6.40;1.00
4813;DHT22;2420;51.202;8.698;2022-11-20T02:20:15;-6.40;1.00
4813;DHT22;2420;51.202;8.698;2022-11-20T02:23:05;-6.20;1.00
4813;DHT22;2420;51.202;8.698;2022-11-20T02:25:35;-6.40;1.00
4813;DHT22;2420;51.202;8.698;2022-11-20T02:28:02;-6.30;1.00
4813;DHT22;2420;51.202;8.698;2022-11-20T02:30:28;-6.10;1.00
4813;DHT22;2420;51.202;8.698;2022-11-20T02:32:53;-6.30;1.00
4813;DHT22;2420;51.202;8.698;2022-11-20T02:37:47;-6.20;1.00
4813;DHT22;2420;51.202;8.698;2022-11-20T02:40:13;-6.20;1.00
4813;DHT22;2420;51.202;8.698;2022-11-20T02:42:39;-6.40;1.00
4813;DHT22;2420;51.202;8.698;2022-11-20T02:45:05;-6.00;1.00
4813;DHT22;2420;51.202;8.698;2022-11-20T02:47:31;-6.30;1.00
4813;DHT22;2420;51.202;8.698;2022-11-20T02:49:56;-6.30;1.00
4813;DHT22;2420;51.202;8.698;2022-11-20T02:52:22;-6.20;1.00
4813;DHT22;2420;51.202;8.698;2022-11-20T02:54:48;-6.10;1.00
4813;DHT22;2420;51.202;8.698;2022-11-20T02:57:14;-6.10;1.00
4813;DHT22;2420;51.202;8.698;2022-11-20T02:59:39;-6.30;1.00
4813;DHT22;2420;51.202;8.698;2022-11-20T03:02:05;-6.10;1.00
4813;DHT22;2420;51.202;8.698;2022-11-20T03:04:30;-6.40;1.00
4813;DHT22;2420;51.202;8.698;2022-11-20T03:06:56;-6.10;1.00
4813;DHT22;2420;51.202;8.698;2022-11-20T03:09:22;-6.30;1.00
4813;DHT22;2420;51.202;8.698;2022-11-20T03:11:47;-6.60;1.00
4813;DHT22;2420;51.202;8.698;2022-11-20T03:14:13;-6.30;1.00
4813;DHT22;2420;51.202;8.698;2022-11-20T03:16:39;-6.50;1.00
4813;DHT22;2420;51.202;8.698;2022-11-20T03:19:05;-6.50;1.00
4813;DHT22;2420;51.202;8.698;2022-11-20T03:21:30;-6.80;1.00
4813;DHT22;2420;51.202;8.698;2022-11-20T03:23:57;-6.50;1.00
4813;DHT22;2420;51.202;8.698;2022-11-20T03:26:25;-6.40;1.00
4813;DHT22;2420;51.202;8.698;2022-11-20T03:28:53;-6.60;1.00
4813;DHT22;2420;51.202;8.698;2022-11-20T03:31:21;-6.60;1.00
4813;DHT22;2420;51.202;8.698;2022-11-20T03:33:48;-6.60;1.00
4813;DHT22;2420;51.202;8.698;2022-11-20T03:36:15;-6.60;1.00
4813;DHT22;2420;51.202;8.698;2022-11-20T03:38:41;-6.50;1.00
4813;DHT22;2420;51.202;8.698;2022-11-20T03:41:09;-6.60;1.00
4813;DHT22;2420;51.202;8.698;2022-11-20T03:43:35;-6.50;1.00
4813;DHT22;2420;51.202;8.698;2022-11-20T03:46:01;-6.50;1.00
4813;DHT22;2420;51.202;8.698;2022-11-20T03:48:27;-6.60;1.00
4813;DHT22;2420;51.202;8.698;2022-11-20T03:53:34;-6.60;1.00
4813;DHT22;2420;51.202;8.698;2022-11-20T03:56:00;-6.60;1.00
4813;DHT22;2420;51.202;8.698;2022-11-20T03:58:25;-6.50;1.00
4813;DHT22;2420;51.202;8.698;2022-11-20T04:00:51;-6.50;1.00
4813;DHT22;2420;51.202;8.698;2022-11-20T04:03:16;-6.20;1.00
4813;DHT22;2420;51.202;8.698;2022-11-20T04:05:42;-6.20;1.00
4813;DHT22;2420;51.202;8.698;2022-11-20T04:08:07;-6.20;1.00
4813;DHT22;2420;51.202;8.698;2022-11-20T04:10:33;-6.30;1.00
4813;DHT22;2420;51.202;8.698;2022-11-20T04:12:59;-6.20;1.00
4813;DHT22;2420;51.202;8.698;2022-11-20T04:15:24;-6.30;1.00
4813;DHT22;2420;51.202;8.698;2022-11-20T04:17:50;-6.30;1.00
4813;DHT22;2420;51.202;8.698;2022-11-20T04:20:15;-6.60;1.00
4813;DHT22;2420;51.202;8.698;2022-11-20T04:22:41;-6.40;1.00
4813;DHT22;2420;51.202;8.698;2022-11-20T04:25:07;-6.40;1.00
4813;DHT22;2420;51.202;8.698;2022-11-20T04:27:32;-6.50;1.00
4813;DHT22;2420;51.202;8.698;2022-11-20T04:29:58;-6.40;1.00
4813;DHT22;2420;51.202;8.698;2022-11-20T04:32:23;-6.50;1.00
4813;DHT22;2420;51.202;8.698;2022-11-20T04:34:49;-6.80;1.00
4813;DHT22;2420;51.202;8.698;2022-11-20T04:37:14;-6.60;1.00
4813;DHT22;2420;51.202;8.698;2022-11-20T04:39:40;-6.60;1.00
4813;DHT22;2420;51.202;8.698;2022-11-20T04:42:05;-6.50;1.00
4813;DHT22;2420;51.202;8.698;2022-11-20T04:44:50;-6.50;1.00
4813;DHT22;2420;51.202;8.698;2022-11-20T04:47:15;-6.30;1.00
4813;DHT22;2420;51.202;8.698;2022-11-20T04:49:40;-6.50;1.00
4813;DHT22;2420;51.202;8.698;2022-11-20T04:52:06;-6.40;1.00
4813;DHT22;2420;51.202;8.698;2022-11-20T04:54:31;-6.60;1.00
4813;DHT22;2420;51.202;8.698;2022-11-20T04:56:57;-6.30;1.00
4813;DHT22;2420;51.202;8.698;2022-11-20T04:59:22;-6.30;1.00
4813;DHT22;2420;51.202;8.698;2022-11-20T05:01:48;-6.20;1.00
4813;DHT22;2420;51.202;8.698;2022-11-20T05:04:14;-6.30;1.00
4813;DHT22;2420;51.202;8.698;2022-11-20T05:06:39;-6.30;1.00
4813;DHT22;2420;51.202;8.698;2022-11-20T05:09:05;-6.10;1.00
4813;DHT22;2420;51.202;8.698;2022-11-20T05:11:31;-6.30;1.00
4813;DHT22;2420;51.202;8.698;2022-11-20T05:13:58;-6.10;1.00
4813;DHT22;2420;51.202;8.698;2022-11-20T05:16:24;-6.10;1.00
4813;DHT22;2420;51.202;8.698;2022-11-20T05:18:51;-6.10;1.00
4813;DHT22;2420;51.202;8.698;2022-11-20T05:21:18;-6.40;1.00
4813;DHT22;2420;51.202;8.698;2022-11-20T05:23:44;-6.30;1.00
4813;DHT22;2420;51.202;8.698;2022-11-20T05:26:21;-6.30;1.00
4813;DHT22;2420;51.202;8.698;2022-11-20T05:28:47;-6.40;1.00
4813;DHT22;2420;51.202;8.698;2022-11-20T05:31:15;-6.40;1.00
4813;DHT22;2420;51.202;8.698;2022-11-20T05:33:42;-6.10;1.00
4813;DHT22;2420;51.202;8.698;2022-11-20T05:36:10;-6.10;1.00
4813;DHT22;2420;51.202;8.698;2022-11-20T05:38:36;-6.30;1.00
4813;DHT22;2420;51.202;8.698;2022-11-20T05:41:13;-6.50;1.00
4813;DHT22;2420;51.202;8.698;2022-11-20T05:43:40;-6.30;1.00
4813;DHT22;2420;51.202;8.698;2022-11-20T05:46:07;-6.60;1.00
4813;DHT22;2420;51.202;8.698;2022-11-20T05:48:34;-6.80;1.00
4813;DHT22;2420;51.202;8.698;2022-11-20T05:51:01;-6.40;1.00
4813;DHT22;2420;51.202;8.698;2022-11-20T05:53:27;-6.50;1.00
4813;DHT22;2420;51.202;8.698;2022-11-20T05:56:07;-6.50;1.00
4813;DHT22;2420;51.202;8.698;2022-11-20T05:58:33;-6.40;1.00
4813;DHT22;2420;51.202;8.698;2022-11-20T06:01:15;-6.30;1.00
4813;DHT22;2420;51.202;8.698;2022-11-20T06:03:42;-6.40;1.00
4813;DHT22;2420;51.202;8.698;2022-11-20T06:06:08;-6.20;1.00
4813;DHT22;2420;51.202;8.698;2022-11-20T06:08:34;-6.20;1.00
4813;DHT22;2420;51.202;8.698;2022-11-20T06:11:08;-6.20;1.00
4813;DHT22;2420;51.202;8.698;2022-11-20T06:13:34;-5.70;1.00
4813;DHT22;2420;51.202;8.698;2022-11-20T06:16:00;-5.90;1.00
4813;DHT22;2420;51.202;8.698;2022-11-20T06:18:27;-5.70;1.00
4813;DHT22;2420;51.202;8.698;2022-11-20T06:21:19;-5.40;1.00
4813;DHT22;2420;51.202;8.698;2022-11-20T06:23:45;-5.60;1.00
4813;DHT22;2420;51.202;8.698;2022-11-20T06:26:16;-5.50;1.00
4813;DHT22;2420;51.202;8.698;2022-11-20T06:28:42;-5.30;1.00
4813;DHT22;2420;51.202;8.698;2022-11-20T06:31:09;-5.20;1.00
4813;DHT22;2420;51.202;8.698;2022-11-20T06:33:35;-5.30;1.00
4813;DHT22;2420;51.202;8.698;2022-11-20T06:36:01;-5.30;1.00
4813;DHT22;2420;51.202;8.698;2022-11-20T06:38:28;-5.20;1.00
4813;DHT22;2420;51.202;8.698;2022-11-20T06:40:54;-5.10;1.00
4813;DHT22;2420;51.202;8.698;2022-11-20T06:43:19;-5.30;1.00
4813;DHT22;2420;51.202;8.698;2022-11-20T06:45:45;-5.30;1.00
4813;DHT22;2420;51.202;8.698;2022-11-20T06:48:10;-4.90;1.00
4813;DHT22;2420;51.202;8.698;2022-11-20T06:50:37;-4.90;1.00
4813;DHT22;2420;51.202;8.698;2022-11-20T06:53:04;-5.00;1.00
4813;DHT22;2420;51.202;8.698;2022-11-20T06:55:30;-4.90;1.00
4813;DHT22;2420;51.202;8.698;2022-11-20T06:57:56;-4.90;1.00
4813;DHT22;2420;51.202;8.698;2022-11-20T07:00:22;-4.70;1.00
4813;DHT22;2420;51.202;8.698;2022-11-20T07:02:47;-4.70;1.00
4813;DHT22;2420;51.202;8.698;2022-11-20T07:05:13;-4.70;1.00
4813;DHT22;2420;51.202;8.698;2022-11-20T07:07:38;-4.50;1.00
4813;DHT22;2420;51.202;8.698;2022-11-20T07:10:04;-4.50;1.00
4813;DHT22;2420;51.202;8.698;2022-11-20T07:12:30;-4.40;1.00
4813;DHT22;2420;51.202;8.698;2022-11-20T07:14:56;-4.30;1.00
4813;DHT22;2420;51.202;8.698;2022-11-20T07:17:21;-4.10;1.00
4813;DHT22;2420;51.202;8.698;2022-11-20T07:19:47;-4.40;1.00
4813;DHT22;2420;51.202;8.698;2022-11-20T07:22:13;-4.30;1.00
4813;DHT22;2420;51.202;8.698;2022-11-20T07:24:38;-4.10;1.00
4813;DHT22;2420;51.202;8.698;2022-11-20T07:27:04;-3.90;1.00
4813;DHT22;2420;51.202;8.698;2022-11-20T07:29:30;-4.00;1.00
4813;DHT22;2420;51.202;8.698;2022-11-20T07:31:56;-3.90;1.00
4813;DHT22;2420;51.202;8.698;2022-11-20T07:34:22;-3.90;1.00
4813;DHT22;2420;51.202;8.698;2022-11-20T07:36:47;-3.80;1.00
4813;DHT22;2420;51.202;8.698;2022-11-20T07:39:13;-3.70;1.00
4813;DHT22;2420;51.202;8.698;2022-11-20T07:41:38;-3.80;1.00
4813;DHT22;2420;51.202;8.698;2022-11-20T07:44:04;-3.80;1.00
4813;DHT22;2420;51.202;8.698;2022-11-20T07:46:30;-3.50;1.00
4813;DHT22;2420;51.202;8.698;2022-11-20T07:48:55;-3.60;1.00
4813;DHT22;2420;51.202;8.698;2022-11-20T07:51:21;-3.40;1.00
4813;DHT22;2420;51.202;8.698;2022-11-20T07:53:46;-3.50;1.00
4813;DHT22;2420;51.202;8.698;2022-11-20T07:56:12;-3.50;1.00
4813;DHT22;2420;51.202;8.698;2022-11-20T07:58:39;-3.50;1.00
4813;DHT22;2420;51.202;8.698;2022-11-20T08:01:06;-3.50;1.00
4813;DHT22;2420;51.202;8.698;2022-11-20T08:03:35;-3.40;1.00
4813;DHT22;2420;51.202;8.698;2022-11-20T08:06:03;-3.30;1.00
4813;DHT22;2420;51.202;8.698;2022-11-20T08:08:29;-3.10;1.00
4813;DHT22;2420;51.202;8.698;2022-11-20T08:10:57;-3.20;1.00
4813;DHT22;2420;51.202;8.698;2022-11-20T08:13:42;-3.20;1.00
4813;DHT22;2420;51.202;8.698;2022-11-20T08:16:27;-3.10;1.00
4813;DHT22;2420;51.202;8.698;2022-11-20T08:18:53;-3.10;1.00
4813;DHT22;2420;51.202;8.698;2022-11-20T08:21:18;-2.90;1.00
4813;DHT22;2420;51.202;8.698;2022-11-20T08:23:44;-2.80;1.00
4813;DHT22;2420;51.202;8.698;2022-11-20T08:26:09;-3.10;1.00
4813;DHT22;2420;51.202;8.698;2022-11-20T08:28:35;-2.80;1.00
4813;DHT22;2420;51.202;8.698;2022-11-20T08:31:02;-2.70;1.00
4813;DHT22;2420;51.202;8.698;2022-11-20T08:33:28;-2.60;1.00
4813;DHT22;2420;51.202;8.698;2022-11-20T08:35:57;-2.70;1.00
4813;DHT22;2420;51.202;8.698;2022-11-20T08:38:23;-2.60;1.00
4813;DHT22;2420;51.202;8.698;2022-11-20T08:40:49;-2.40;1.00
4813;DHT22;2420;51.202;8.698;2022-11-20T08:43:34;-2.40;1.00
4813;DHT22;2420;51.202;8.698;2022-11-20T08:46:00;-2.30;1.00
4813;DHT22;2420;51.202;8.698;2022-11-20T08:48:25;-2.40;1.00
4813;DHT22;2420;51.202;8.698;2022-11-20T08:50:50;-2.10;1.00
4813;DHT22;2420;51.202;8.698;2022-11-20T08:53:16;-2.30;1.00
4813;DHT22;2420;51.202;8.698;2022-11-20T08:55:41;-2.20;1.00
4813;DHT22;2420;51.202;8.698;2022-11-20T08:58:07;-2.20;1.00
4813;DHT22;2420;51.202;8.698;2022-11-20T09:00:33;-2.10;1.00
4813;DHT22;2420;51.202;8.698;2022-11-20T09:03:00;-2.10;1.00
4813;DHT22;2420;51.202;8.698;2022-11-20T09:05:26;-2.10;1.00
4813;DHT22;2420;51.202;8.698;2022-11-20T09:07:58;-2.10;1.00
4813;DHT22;2420;51.202;8.698;2022-11-20T09:10:25;-2.10;1.00
4813;DHT22;2420;51.202;8.698;2022-11-20T09:12:52;-2.00;1.00
4813;DHT22;2420;51.202;8.698;2022-11-20T09:15:18;-2.00;1.00
4813;DHT22;2420;51.202;8.698;2022-11-20T09:17:58;-2.00;1.00
4813;DHT22;2420;51.202;8.698;2022-11-20T09:20:24;-2.00;1.00
4813;DHT22;2420;51.202;8.698;2022-11-20T09:22:50;-1.90;1.00
4813;DHT22;2420;51.202;8.698;2022-11-20T09:25:16;-2.00;1.00
4813;DHT22;2420;51.202;8.698;2022-11-20T09:27:41;-1.80;1.00
4813;DHT22;2420;51.202;8.698;2022-11-20T09:30:09;-1.70;1.00
4813;DHT22;2420;51.202;8.698;2022-11-20T09:32:35;-1.70;1.00
4813;DHT22;2420;51.202;8.698;2022-11-20T09:35:01;-1.60;1.00
4813;DHT22;2420;51.202;8.698;2022-11-20T09:37:26;-1.60;1.00
4813;DHT22;2420;51.202;8.698;2022-11-20T09:39:52;-1.50;1.00
4813;DHT22;2420;51.202;8.698;2022-11-20T09:45:52;-1.20;1.00
4813;DHT22;2420;51.202;8.698;2022-11-20T09:54:17;-1.00;1.00
4813;DHT22;2420;51.202;8.698;2022-11-20T09:56:59;-1.00;1.00
4813;DHT22;2420;51.202;8.698;2022-11-20T09:59:46;-0.80;1.00
4813;DHT22;2420;51.202;8.698;2022-11-20T10:10:43;-0.70;1.00
4813;DHT22;2420;51.202;8.698;2022-11-20T10:18:44;-0.50;1.00
4813;DHT22;2420;51.202;8.698;2022-11-20T10:21:40;-0.40;1.00
4813;DHT22;2420;51.202;8.698;2022-11-20T10:24:39;-0.30;1.00
4813;DHT22;2420;51.202;8.698;2022-11-20T10:27:15;-0.20;1.00
4813;DHT22;2420;51.202;8.698;2022-11-20T10:29:51;-0.20;1.00
4813;DHT22;2420;51.202;8.698;2022-11-20T10:32:22;-0.20;1.00
4813;DHT22;2420;51.202;8.698;2022-11-20T10:34:59;-0.20;1.00
4813;DHT22;2420;51.202;8.698;2022-11-20T10:37:29;-0.20;1.00
4813;DHT22;2420;51.202;8.698;2022-11-20T10:40:09;-0.20;1.00
4813;DHT22;2420;51.202;8.698;2022-11-20T10:42:57;-0.20;1.00
4813;DHT22;2420;51.202;8.698;2022-11-20T10:47:52;0.00;1.00
4813;DHT22;2420;51.202;8.698;2022-11-20T10:50:21;0.00;1.00
4813;DHT22;2420;51.202;8.698;2022-11-20T10:53:02;0.00;1.00
4813;DHT22;2420;51.202;8.698;2022-11-20T11:00:40;0.10;1.00
4813;DHT22;2420;51.202;8.698;2022-11-20T11:03:29;0.10;1.00
4813;DHT22;2420;51.202;8.698;2022-11-20T11:08:56;0.20;1.00
4813;DHT22;2420;51.202;8.698;2022-11-20T11:13:51;0.40;1.00
4813;DHT22;2420;51.202;8.698;2022-11-20T11:16:25;0.60;1.00
4813;DHT22;2420;51.202;8.698;2022-11-20T11:18:51;0.70;1.00
4813;DHT22;2420;51.202;8.698;2022-11-20T11:21:24;0.80;1.00
4813;DHT22;2420;51.202;8.698;2022-11-20T11:24:00;0.90;1.00
4813;DHT22;2420;51.202;8.698;2022-11-20T11:26:26;1.10;1.00
4813;DHT22;2420;51.202;8.698;2022-11-20T11:29:03;1.20;1.00
4813;DHT22;2420;51.202;8.698;2022-11-20T11:31:34;1.20;1.00
4813;DHT22;2420;51.202;8.698;2022-11-20T11:34:07;1.20;1.00
4813;DHT22;2420;51.202;8.698;2022-11-20T11:36:34;1.30;1.00
4813;DHT22;2420;51.202;8.698;2022-11-20T11:39:02;1.40;1.00
4813;DHT22;2420;51.202;8.698;2022-11-20T11:41:32;1.50;1.00
4813;DHT22;2420;51.202;8.698;2022-11-20T11:44:20;1.50;1.00
4813;DHT22;2420;51.202;8.698;2022-11-20T11:47:10;1.40;1.00
4813;DHT22;2420;51.202;8.698;2022-11-20T11:49:36;1.50;1.00
4813;DHT22;2420;51.202;8.698;2022-11-20T11:52:23;1.60;1.00
4813;DHT22;2420;51.202;8.698;2022-11-20T11:54:53;1.70;1.00
4813;DHT22;2420;51.202;8.698;2022-11-20T11:57:28;1.80;1.00
4813;DHT22;2420;51.202;8.698;2022-11-20T12:05:30;1.70;1.00
4813;DHT22;2420;51.202;8.698;2022-11-20T12:08:12;1.80;1.00
4813;DHT22;2420;51.202;8.698;2022-11-20T12:13:34;1.90;1.00
4813;DHT22;2420;51.202;8.698;2022-11-20T12:16:03;1.80;1.00
4813;DHT22;2420;51.202;8.698;2022-11-20T12:18:29;1.70;1.00
4813;DHT22;2420;51.202;8.698;2022-11-20T12:26:10;1.50;1.00
4813;DHT22;2420;51.202;8.698;2022-11-20T12:31:41;1.40;1.00
4813;DHT22;2420;51.202;8.698;2022-11-20T12:39:42;1.40;1.00
4813;DHT22;2420;51.202;8.698;2022-11-20T12:53:25;1.50;1.00
4813;DHT22;2420;51.202;8.698;2022-11-20T12:56:02;1.50;1.00
4813;DHT22;2420;51.202;8.698;2022-11-20T13:06:46;1.50;1.00
4813;DHT22;2420;51.202;8.698;2022-11-20T13:09:15;1.50;1.00
4813;DHT22;2420;51.202;8.698;2022-11-20T13:12:06;1.50;1.00
4813;DHT22;2420;51.202;8.698;2022-11-20T13:14:58;1.50;1.00
4813;DHT22;2420;51.202;8.698;2022-11-20T13:17:47;1.50;1.00
4813;DHT22;2420;51.202;8.698;2022-11-20T13:20:18;1.40;1.00
4813;DHT22;2420;51.202;8.698;2022-11-20T13:22:46;1.40;1.00
4813;DHT22;2420;51.202;8.698;2022-11-20T13:25:31;1.30;1.00
4813;DHT22;2420;51.202;8.698;2022-11-20T13:27:59;1.20;1.00
4813;DHT22;2420;51.202;8.698;2022-11-20T13:30:27;1.20;1.00
4813;DHT22;2420;51.202;8.698;2022-11-20T13:33:09;1.20;1.00
4813;DHT22;2420;51.202;8.698;2022-11-20T13:35:35;1.20;1.00
4813;DHT22;2420;51.202;8.698;2022-11-20T13:38:13;1.20;1.00
4813;DHT22;2420;51.202;8.698;2022-11-20T13:40:58;1.20;1.00
4813;DHT22;2420;51.202;8.698;2022-11-20T13:43:39;1.20;1.00
4813;DHT22;2420;51.202;8.698;2022-11-20T13:46:07;1.20;1.00
4813;DHT22;2420;51.202;8.698;2022-11-20T13:48:42;1.20;1.00
4813;DHT22;2420;51.202;8.698;2022-11-20T13:57:12;1.30;1.00
4813;DHT22;2420;51.202;8.698;2022-11-20T14:02:31;1.30;1.00
4813;DHT22;2420;51.202;8.698;2022-11-20T14:04:58;1.30;1.00
4813;DHT22;2420;51.202;8.698;2022-11-20T14:07:31;1.30;1.00
4813;DHT22;2420;51.202;8.698;2022-11-20T14:09:58;1.40;1.00
4813;DHT22;2420;51.202;8.698;2022-11-20T14:12:29;1.30;1.00
4813;DHT22;2420;51.202;8.698;2022-11-20T14:14:55;1.30;1.00
4813;DHT22;2420;51.202;8.698;2022-11-20T14:17:29;1.30;1.00
4813;DHT22;2420;51.202;8.698;2022-11-20T14:19:58;1.20;1.00
4813;DHT22;2420;51.202;8.698;2022-11-20T14:22:26;1.20;1.00
4813;DHT22;2420;51.202;8.698;2022-11-20T14:27:40;1.10;1.00
4813;DHT22;2420;51.202;8.698;2022-11-20T14:30:15;1.00;1.00
4813;DHT22;2420;51.202;8.698;2022-11-20T14:32:42;1.00;1.00
4813;DHT22;2420;51.202;8.698;2022-11-20T14:35:21;1.00;1.00
4813;DHT22;2420;51.202;8.698;2022-11-20T14:37:48;1.00;1.00
4813;DHT22;2420;51.202;8.698;2022-11-20T14:40:35;0.90;1.00
4813;DHT22;2420;51.202;8.698;2022-11-20T14:43:16;0.90;1.00
4813;DHT22;2420;51.202;8.698;2022-11-20T14:45:42;0.90;1.00
4813;DHT22;2420;51.202;8.698;2022-11-20T14:48:09;0.90;1.00
4813;DHT22;2420;51.202;8.698;2022-11-20T14:50:38;0.90;1.00
4813;DHT22;2420;51.202;8.698;2022-11-20T14:53:04;0.80;1.00
4813;DHT22;2420;51.202;8.698;2022-11-20T14:55:38;0.80;1.00
4813;DHT22;2420;51.202;8.698;2022-11-20T14:58:21;0.80;1.00
4813;DHT22;2420;51.202;8.698;2022-11-20T15:03:34;0.80;1.00
4813;DHT22;2420;51.202;8.698;2022-11-20T15:06:00;0.90;1.00
4813;DHT22;2420;51.202;8.698;2022-11-20T15:08:26;0.90;1.00
4813;DHT22;2420;51.202;8.698;2022-11-20T15:10:53;0.80;1.00
4813;DHT22;2420;51.202;8.698;2022-11-20T15:13:33;0.80;1.00
4813;DHT22;2420;51.202;8.698;2022-11-20T15:16:00;0.70;1.00
4813;DHT22;2420;51.202;8.698;2022-11-20T15:18:32;0.80;1.00
4813;DHT22;2420;51.202;8.698;2022-11-20T15:21:04;0.80;1.00
4813;DHT22;2420;51.202;8.698;2022-11-20T15:23:31;0.80;1.00
4813;DHT22;2420;51.202;8.698;2022-11-20T15:25:57;0.80;1.00
4813;DHT22;2420;51.202;8.698;2022-11-20T15:28:33;0.80;1.00
4813;DHT22;2420;51.202;8.698;2022-11-20T15:30:59;0.80;1.00
4813;DHT22;2420;51.202;8.698;2022-11-20T15:33:25;0.70;1.00
4813;DHT22;2420;51.202;8.698;2022-11-20T15:35:50;0.80;1.00
4813;DHT22;2420;51.202;8.698;2022-11-20T15:38:16;0.80;1.00
4813;DHT22;2420;51.202;8.698;2022-11-20T15:40:41;0.70;1.00
4813;DHT22;2420;51.202;8.698;2022-11-20T15:43:07;0.70;1.00
4813;DHT22;2420;51.202;8.698;2022-11-20T15:45:37;0.70;1.00
4813;DHT22;2420;51.202;8.698;2022-11-20T15:48:04;0.70;1.00
4813;DHT22;2420;51.202;8.698;2022-11-20T15:50:37;0.70;1.00
4813;DHT22;2420;51.202;8.698;2022-11-20T15:53:03;0.70;1.00
4813;DHT22;2420;51.202;8.698;2022-11-20T15:55:29;0.70;1.00
4813;DHT22;2420;51.202;8.698;2022-11-20T15:57:55;0.80;1.00
4813;DHT22;2420;51.202;8.698;2022-11-20T16:00:20;0.70;1.00
4813;DHT22;2420;51.202;8.698;2022-11-20T16:02:46;0.70;1.00
4813;DHT22;2420;51.202;8.698;2022-11-20T16:05:12;0.70;1.00
4813;DHT22;2420;51.202;8.698;2022-11-20T16:07:39;0.70;1.00
4813;DHT22;2420;51.202;8.698;2022-11-20T16:10:05;0.70;1.00
4813;DHT22;2420;51.202;8.698;2022-11-20T16:12:30;0.70;1.00
4813;DHT22;2420;51.202;8.698;2022-11-20T16:15:14;0.70;1.00
4813;DHT22;2420;51.202;8.698;2022-11-20T16:17:58;0.70;1.00
4813;DHT22;2420;51.202;8.698;2022-11-20T16:20:24;0.60;1.00
4813;DHT22;2420;51.202;8.698;2022-11-20T16:22:49;0.70;1.00
4813;DHT22;2420;51.202;8.698;2022-11-20T16:25:15;0.70;1.00
4813;DHT22;2420;51.202;8.698;2022-11-20T16:27:41;0.70;1.00
4813;DHT22;2420;51.202;8.698;2022-11-20T16:30:07;0.70;1.00
4813;DHT22;2420;51.202;8.698;2022-11-20T16:32:33;0.70;1.00
4813;DHT22;2420;51.202;8.698;2022-11-20T16:34:58;0.70;1.00
4813;DHT22;2420;51.202;8.698;2022-11-20T16:37:24;0.70;1.00
4813;DHT22;2420;51.202;8.698;2022-11-20T16:39:52;0.70;1.00
4813;DHT22;2420;51.202;8.698;2022-11-20T16:42:17;0.70;1.00
4813;DHT22;2420;51.202;8.698;2022-11-20T16:44:45;0.60;1.00
4813;DHT22;2420;51.202;8.698;2022-11-20T16:47:10;0.60;1.00
4813;DHT22;2420;51.202;8.698;2022-11-20T16:49:36;0.70;1.00
4813;DHT22;2420;51.202;8.698;2022-11-20T16:52:02;0.70;1.00
4813;DHT22;2420;51.202;8.698;2022-11-20T16:54:27;0.70;1.00
4813;DHT22;2420;51.202;8.698;2022-11-20T16:56:53;0.70;1.00
4813;DHT22;2420;51.202;8.698;2022-11-20T16:59:18;0.60;1.00
4813;DHT22;2420;51.202;8.698;2022-11-20T17:01:44;0.60;1.00
4813;DHT22;2420;51.202;8.698;2022-11-20T17:04:09;0.80;1.00
4813;DHT22;2420;51.202;8.698;2022-11-20T17:06:37;0.70;1.00
4813;DHT22;2420;51.202;8.698;2022-11-20T17:09:04;0.70;1.00
4813;DHT22;2420;51.202;8.698;2022-11-20T17:11:31;0.70;1.00
4813;DHT22;2420;51.202;8.698;2022-11-20T17:13:58;0.70;1.00
4813;DHT22;2420;51.202;8.698;2022-11-20T17:16:32;0.70;1.00
4813;DHT22;2420;51.202;8.698;2022-11-20T17:18:58;0.70;1.00
4813;DHT22;2420;51.202;8.698;2022-11-20T17:21:24;0.70;1.00
4813;DHT22;2420;51.202;8.698;2022-11-20T17:23:50;0.70;1.00
4813;DHT22;2420;51.202;8.698;2022-11-20T17:26:18;0.70;1.00
4813;DHT22;2420;51.202;8.698;2022-11-20T17:28:45;0.70;1.00
4813;DHT22;2420;51.202;8.698;2022-11-20T17:31:17;0.70;1.00
4813;DHT22;2420;51.202;8.698;2022-11-20T17:33:44;0.70;1.00
4813;DHT22;2420;51.202;8.698;2022-11-20T17:36:12;0.80;1.00
4813;DHT22;2420;51.202;8.698;2022-11-20T17:38:38;0.70;1.00
4813;DHT22;2420;51.202;8.698;2022-11-20T17:41:24;0.70;1.00
4813;DHT22;2420;51.202;8.698;2022-11-20T17:43:52;0.70;1.00
4813;DHT22;2420;51.202;8.698;2022-11-20T17:46:21;0.70;1.00
4813;DHT22;2420;51.202;8.698;2022-11-20T17:48:47;0.70;1.00
4813;DHT22;2420;51.202;8.698;2022-11-20T17:51:19;0.70;1.00
4813;DHT22;2420;51.202;8.698;2022-11-20T17:53:50;0.70;1.00
4813;DHT22;2420;51.202;8.698;2022-11-20T17:56:17;0.80;1.00
4813;DHT22;2420;51.202;8.698;2022-11-20T17:59:09;0.70;1.00
4813;DHT22;2420;51.202;8.698;2022-11-20T18:01:35;0.70;1.00
4813;DHT22;2420;51.202;8.698;2022-11-20T18:04:01;0.70;1.00
4813;DHT22;2420;51.202;8.698;2022-11-20T18:06:28;0.70;1.00
4813;DHT22;2420;51.202;8.698;2022-11-20T18:08:54;0.70;1.00
4813;DHT22;2420;51.202;8.698;2022-11-20T18:11:25;0.70;1.00
4813;DHT22;2420;51.202;8.698;2022-11-20T18:13:56;0.70;1.00
4813;DHT22;2420;51.202;8.698;2022-11-20T18:16:42;0.70;1.00
4813;DHT22;2420;51.202;8.698;2022-11-20T18:19:14;0.70;1.00